Time;durP1;ratioP1;P1;durP2;ratioP2;P2;SDS_P1;SDS_P2;PMS_P1;PMS_P2;Temp;Humidity;BMP_temperature;BMP_pressure;BME280_temperature;BME280_humidity;BME280_pressure;Samples;Min_cycle;Max_cycle;Signal;HPM_P1;HPM_P2
2023/10/11 00:02:11;;;;;;;34.00;13.20;;;;;;;16.27;100.00;101434.22;6087675;19;20015;-76
2023/10/11 00:04:27;;;;;;;33.30;13.27;;;;;;;16.32;100.00;101452.53;6090476;19;20082;-75
2023/10/11 00:06:42;;;;;;;43.00;15.05;;;;;;;16.35;100.00;101447.06;6089792;19;20027;-76
2023/10/11 00:09:02;;;;;;;38.63;13.30;;;;;;;16.36;100.00;101448.78;6089764;19;20015;-77
2023/10/11 00:11:24;;;;;;;35.85;13.77;;;;;;;16.34;100.00;101445.34;6091857;19;20031;-78
2023/10/11 00:13:46;;;;;;;40.67;13.48;;;;;;;16.34;100.00;101448.00;5988943;19;2004719;-77
2023/10/11 00:16:07;;;;;;;30.17;13.65;;;;;;;16.29;100.00;101448.25;6088947;19;20007;-75
2023/10/11 00:18:26;;;;;;;36.20;12.10;;;;;;;16.34;100.00;101445.34;6088143;19;20010;-77
2023/10/11 00:23:02;;;;;;;32.85;12.07;;;;;;;16.35;100.00;101439.97;6087860;19;20011;-78
2023/10/11 00:25:34;;;;;;;32.03;12.85;;;;;;;16.36;100.00;101443.47;6090487;19;20485;-78
2023/10/11 00:27:58;;;;;;;34.33;12.77;;;;;;;16.37;100.00;101445.19;5994088;19;2004564;-77
2023/10/11 00:33:01;;;;;;;36.10;12.32;;;;;;;16.32;100.00;101441.94;6092945;19;20053;-77
2023/10/11 00:35:55;;;;;;;38.60;13.23;;;;;;;16.34;100.00;101448.84;6094196;19;20412;-78
2023/10/11 00:38:05;;;;;;;40.80;15.00;;;;;;;16.35;100.00;101437.31;5989543;19;2004626;-75
2023/10/11 00:40:28;;;;;;;30.77;11.68;;;;;;;16.37;100.00;101418.66;6086270;19;20039;-74
2023/10/11 00:42:43;;;;;;;36.88;13.40;;;;;;;16.38;100.00;101436.31;6090347;19;20602;-74
2023/10/11 00:45:07;;;;;;;40.22;14.07;;;;;;;16.37;100.00;101435.41;6091829;19;20011;-76
2023/10/11 00:47:17;;;;;;;34.92;13.45;;;;;;;16.40;100.00;101437.94;6088254;19;20010;-75
2023/10/11 00:49:34;;;;;;;33.20;12.95;;;;;;;16.38;100.00;101431.00;6088862;19;20006;-74
2023/10/11 00:51:46;;;;;;;32.30;12.95;;;;;;;16.35;100.00;101423.19;6090736;19;20760;-78
2023/10/11 00:53:50;;;;;;;33.10;12.55;;;;;;;16.35;100.00;101424.06;6082090;19;19999;-75
2023/10/11 00:55:58;;;;;;;32.50;13.05;;;;;;;16.36;100.00;101412.50;6086679;19;20018;-74
2023/10/11 00:58:06;;;;;;;35.67;12.13;;;;;;;16.40;100.00;101414.06;6090489;19;20017;-74
2023/10/11 01:00:16;;;;;;;34.25;12.52;;;;;;;16.36;100.00;101409.84;6082403;19;20041;-75
2023/10/11 01:02:21;;;;;;;35.42;13.20;;;;;;;16.34;100.00;101408.22;6094126;19;20010;-75
2023/10/11 01:04:37;;;;;;;36.95;14.00;;;;;;;16.37;100.00;101408.03;6094460;19;20019;-74
2023/10/11 01:06:50;;;;;;;36.70;12.95;;;;;;;16.35;100.00;101409.91;6090918;19;20029;-76
2023/10/11 01:08:56;;;;;;;35.78;13.45;;;;;;;16.37;100.00;101402.75;6095619;19;20038;-75
2023/10/11 01:10:59;;;;;;;40.55;14.07;;;;;;;16.35;100.00;101408.16;6090434;19;20030;-75
2023/10/11 01:13:05;;;;;;;32.45;13.10;;;;;;;16.38;100.00;101409.78;6089013;19;20042;-77
2023/10/11 01:15:12;;;;;;;39.28;12.68;;;;;;;16.39;100.00;101407.03;6091162;19;20042;-77
2023/10/11 01:17:18;;;;;;;37.38;13.82;;;;;;;16.32;100.00;101408.28;6091384;19;20014;-78
2023/10/11 01:19:24;;;;;;;48.08;14.68;;;;;;;16.28;100.00;101405.91;6090436;19;20037;-76
2023/10/11 01:21:34;;;;;;;42.55;15.27;;;;;;;16.26;100.00;101402.50;6082761;19;20018;-76
2023/10/11 01:23:38;;;;;;;36.42;14.02;;;;;;;16.28;100.00;101414.72;6088223;19;20007;-78
2023/10/11 01:25:46;;;;;;;42.55;15.25;;;;;;;16.34;100.00;101409.06;6089018;19;20014;-76
2023/10/11 01:27:51;;;;;;;47.17;14.45;;;;;;;16.29;100.00;101403.16;6088423;19;20018;-75
2023/10/11 01:29:54;;;;;;;35.55;14.00;;;;;;;16.23;100.00;101401.72;6088944;19;20014;-74
2023/10/11 01:32:00;;;;;;;;;;;;;;;16.21;100.00;101408.88;6089324;19;20011;-75
2023/10/11 01:34:13;;;;;;;39.13;14.07;;;;;;;16.20;100.00;101396.59;6089447;19;19922;-76
2023/10/11 01:36:21;;;;;;;42.33;14.50;;;;;;;16.22;100.00;101394.72;6077370;19;20013;-74
2023/10/11 01:38:32;;;;;;;39.13;15.02;;;;;;;16.17;100.00;101394.09;6085022;19;20011;-74
2023/10/11 01:40:40;;;;;;;43.58;15.60;;;;;;;16.16;100.00;101389.72;6083359;19;20011;-75
2023/10/11 01:42:49;;;;;;;44.97;15.45;;;;;;;16.16;100.00;101388.88;6086550;19;20122;-76
2023/10/11 01:44:54;;;;;;;38.90;14.45;;;;;;;16.14;100.00;101374.84;6084383;19;20495;-75
2023/10/11 01:47:01;;;;;;;37.75;14.38;;;;;;;16.16;100.00;101373.81;6084498;19;20546;-74
2023/10/11 01:49:09;;;;;;;39.28;14.63;;;;;;;16.14;100.00;101381.03;6088292;19;20495;-77
2023/10/11 01:51:23;;;;;;;39.67;13.93;;;;;;;16.08;100.00;101378.69;6088687;19;20391;-78
2023/10/11 01:53:35;;;;;;;38.55;15.05;;;;;;;16.02;100.00;101371.94;6083610;19;20014;-78
2023/10/11 01:55:54;;;;;;;30.25;14.25;;;;;;;16.02;100.00;101368.44;6086883;19;20007;-79
2023/10/11 01:58:00;;;;;;;36.60;14.65;;;;;;;16.03;100.00;101367.47;6084696;19;20011;-78
2023/10/11 02:00:13;;;;;;;40.05;14.93;;;;;;;16.07;100.00;101354.94;6086835;19;20420;-77
2023/10/11 02:02:26;;;;;;;35.22;14.68;;;;;;;16.03;100.00;101351.56;6082103;19;20005;-77
2023/10/11 02:04:31;;;;;;;42.58;15.07;;;;;;;16.01;100.00;101348.19;6088264;19;20410;-77
2023/10/11 02:06:38;;;;;;;44.13;14.90;;;;;;;15.98;100.00;101345.66;6085178;19;20355;-77
2023/10/11 02:08:50;;;;;;;39.60;14.80;;;;;;;15.96;100.00;101344.91;6087891;19;20553;-77
2023/10/11 02:10:55;;;;;;;40.35;15.25;;;;;;;15.95;100.00;101343.19;6089333;19;20079;-77
2023/10/11 02:13:00;;;;;;;37.40;14.32;;;;;;;15.98;100.00;101346.53;6082850;19;20030;-74
2023/10/11 02:15:09;;;;;;;45.83;15.65;;;;;;;15.98;100.00;101359.81;6085520;19;20047;-77
2023/10/11 02:17:18;;;;;;;45.35;16.17;;;;;;;16.01;100.00;101350.81;6085605;19;20014;-76
2023/10/11 02:19:24;;;;;;;51.47;17.10;;;;;;;15.98;100.00;101362.44;6080918;19;20014;-75
2023/10/11 02:21:31;;;;;;;46.05;15.07;;;;;;;15.94;100.00;101354.75;6084384;19;20033;-75
2023/10/11 02:23:42;;;;;;;39.42;15.13;;;;;;;15.95;100.00;101359.94;6085887;19;20010;-77
2023/10/11 02:25:52;;;;;;;39.53;14.18;;;;;;;15.92;100.00;101359.25;6089038;19;20011;-77
2023/10/11 02:27:58;;;;;;;35.10;15.13;;;;;;;15.86;100.00;101351.66;6088618;19;20010;-77
2023/10/11 02:30:13;;;;;;;40.70;15.85;;;;;;;15.81;100.00;101359.84;6088175;19;20034;-77
2023/10/11 02:32:21;;;;;;;43.80;15.13;;;;;;;15.70;100.00;101355.13;6088759;19;20018;-77
2023/10/11 02:34:27;;;;;;;42.75;16.02;;;;;;;15.64;100.00;101355.44;6090604;19;20033;-75
2023/10/11 02:36:36;;;;;;;43.40;16.40;;;;;;;15.68;100.00;101356.97;6080963;19;20027;-75
2023/10/11 02:38:47;;;;;;;32.05;15.30;;;;;;;15.64;100.00;101347.50;6087729;19;20425;-77
2023/10/11 02:40:59;;;;;;;41.72;15.30;;;;;;;15.66;100.00;101348.25;6087477;19;20003;-77
2023/10/11 02:43:07;;;;;;;34.25;14.90;;;;;;;15.63;100.00;101348.41;6093355;19;20039;-77
2023/10/11 02:45:19;;;;;;;42.60;16.05;;;;;;;15.63;100.00;101337.81;6094602;19;20010;-78
2023/10/11 02:47:28;;;;;;;43.00;15.27;;;;;;;15.60;100.00;101351.22;6091571;19;20014;-75
2023/10/11 02:49:35;;;;;;;33.78;16.73;;;;;;;15.59;100.00;101352.19;6089573;19;20468;-77
2023/10/11 02:51:52;;;;;;;46.28;16.10;;;;;;;15.57;100.00;101346.09;6090043;19;20006;-78
2023/10/11 02:54:00;;;;;;;39.70;16.35;;;;;;;15.57;100.00;101349.59;6090051;19;20017;-76
2023/10/11 02:56:15;;;;;;;42.33;17.20;;;;;;;15.57;100.00;101343.44;6093494;19;20018;-77
2023/10/11 02:58:21;;;;;;;38.38;15.60;;;;;;;15.57;100.00;101348.75;6092250;19;20011;-77
2023/10/11 03:00:24;;;;;;;41.92;15.77;;;;;;;15.52;100.00;101341.03;6092598;19;20522;-78
2023/10/11 03:02:33;;;;;;;37.28;16.02;;;;;;;15.50;100.00;101350.00;6088905;19;20044;-74
2023/10/11 03:04:42;;;;;;;37.95;15.13;;;;;;;15.49;100.00;101343.84;6089241;19;20012;-75
2023/10/11 03:06:49;;;;;;;43.67;15.63;;;;;;;15.53;100.00;101337.47;6087945;19;20010;-75
2023/10/11 03:08:54;;;;;;;43.15;16.13;;;;;;;15.49;100.00;101345.66;6089761;19;20007;-76
2023/10/11 03:11:04;;;;;;;38.05;16.65;;;;;;;15.46;100.00;101351.97;6091109;19;20579;-78
2023/10/11 03:13:19;;;;;;;45.08;15.13;;;;;;;15.44;100.00;101347.69;6090363;19;20063;-77
2023/10/11 03:15:26;;;;;;;46.08;17.10;;;;;;;15.44;100.00;101340.59;6091404;19;20077;-77
2023/10/11 03:17:28;;;;;;;41.33;14.85;;;;;;;15.43;100.00;101351.25;6090946;19;20014;-77
2023/10/11 03:19:42;;;;;;;40.92;16.30;;;;;;;15.46;100.00;101341.38;6091587;19;20007;-78
2023/10/11 03:21:53;;;;;;;39.03;15.00;;;;;;;15.43;100.00;101343.31;6089407;19;20015;-77
2023/10/11 03:24:11;;;;;;;38.20;16.10;;;;;;;15.37;100.00;101341.84;6091442;19;20021;-75
2023/10/11 03:26:31;;;;;;;44.25;15.02;;;;;;;15.37;100.00;101336.56;6089596;19;20492;-77
2023/10/11 03:28:45;;;;;;;33.72;14.20;;;;;;;15.38;100.00;101335.63;6090141;19;20474;-76
2023/10/11 03:30:50;;;;;;;35.28;15.63;;;;;;;15.43;100.00;101335.38;6090497;19;20017;-78
2023/10/11 03:32:57;;;;;;;37.75;14.50;;;;;;;15.43;100.00;101332.72;6090921;19;20007;-76
2023/10/11 03:35:03;;;;;;;43.15;15.23;;;;;;;15.40;100.00;101332.88;6091997;19;20450;-78
2023/10/11 03:37:17;;;;;;;47.63;16.52;;;;;;;15.40;100.00;101328.44;6086705;19;20007;-75
2023/10/11 03:39:39;;;;;;;37.67;15.63;;;;;;;15.43;100.00;101330.94;6089195;19;20011;-74
2023/10/11 03:41:45;;;;;;;44.70;18.40;;;;;;;15.42;100.00;101321.28;6086757;19;20010;-75
2023/10/11 03:44:01;;;;;;;46.60;16.55;;;;;;;15.36;100.00;101314.50;6092065;19;20747;-79
2023/10/11 03:46:06;;;;;;;44.85;16.17;;;;;;;15.40;100.00;101320.50;6092909;19;20358;-78
2023/10/11 03:48:14;;;;;;;41.35;15.60;;;;;;;15.39;100.00;101317.94;6092253;19;20266;-75
2023/10/11 03:50:25;;;;;;;43.40;15.68;;;;;;;15.44;100.00;101318.56;6093724;19;20015;-78
2023/10/11 03:52:33;;;;;;;51.20;16.30;;;;;;;15.42;100.00;101312.47;6091850;19;20010;-75
2023/10/11 03:54:36;;;;;;;47.90;16.40;;;;;;;15.44;100.00;101321.19;6094171;19;20049;-75
2023/10/11 03:56:51;;;;;;;43.00;17.35;;;;;;;15.44;100.00;101323.84;6087026;19;20007;-75
2023/10/11 03:59:02;;;;;;;50.97;17.75;;;;;;;15.46;100.00;101314.03;6091768;19;20501;-75
2023/10/11 04:01:14;;;;;;;52.00;19.48;;;;;;;15.50;100.00;101320.88;6092375;19;20022;-75
2023/10/11 04:03:23;;;;;;;47.83;17.13;;;;;;;15.47;100.00;101315.75;6098006;19;20102;-77
2023/10/11 04:05:35;;;;;;;49.15;16.20;;;;;;;15.46;100.00;101314.88;6099371;19;20482;-78
2023/10/11 04:07:42;;;;;;;42.65;17.30;;;;;;;15.47;100.00;101326.34;6095433;19;20022;-79
2023/10/11 04:09:50;;;;;;;44.63;17.73;;;;;;;15.48;100.00;101312.13;6097763;19;20007;-79
2023/10/11 04:12:01;;;;;;;44.92;17.65;;;;;;;15.48;100.00;101314.78;6091413;19;20014;-74
2023/10/11 04:14:23;;;;;;;51.63;18.23;;;;;;;15.48;100.00;101313.03;6091171;19;20378;-74
2023/10/11 04:16:29;;;;;;;44.40;17.50;;;;;;;15.55;100.00;101321.47;6091955;19;20587;-74
2023/10/11 04:18:39;;;;;;;48.70;18.10;;;;;;;15.58;100.00;101310.72;6085332;19;20074;-81
2023/10/11 04:20:51;;;;;;;42.88;16.67;;;;;;;15.51;100.00;101314.66;6092447;19;20010;-79
2023/10/11 04:23:09;;;;;;;44.70;16.95;;;;;;;15.58;100.00;101308.06;6093995;19;20093;-79
2023/10/11 04:25:22;;;;;;;47.65;16.58;;;;;;;15.58;100.00;101305.41;6093267;19;20015;-79
2023/10/11 04:27:47;;;;;;;;;;;;;;;15.58;100.00;101297.47;6092893;19;20010;-74
2023/10/11 04:29:55;;;;;;;38.45;14.48;;;;;;;15.61;100.00;101312.34;6090940;19;19945;-76
2023/10/11 04:32:09;;;;;;;46.65;17.67;;;;;;;15.58;100.00;101308.06;6089555;19;20062;-74
2023/10/11 04:34:23;;;;;;;39.30;18.00;;;;;;;15.63;100.00;101307.81;6092518;19;20023;-75
2023/10/11 04:36:31;;;;;;;48.70;18.33;;;;;;;15.62;100.00;101309.63;6091452;19;20086;-76
2023/10/11 04:38:38;;;;;;;45.13;16.38;;;;;;;15.63;100.00;101315.78;6087655;19;20017;-75
2023/10/11 04:40:51;;;;;;;45.83;16.48;;;;;;;15.61;100.00;101321.13;6088179;19;20006;-78
2023/10/11 04:43:04;;;;;;;40.45;16.75;;;;;;;15.64;100.00;101326.28;6092822;19;20023;-77
2023/10/11 04:45:28;;;;;;;45.05;17.35;;;;;;;15.63;100.00;101321.91;6090565;19;20010;-77
2023/10/11 04:47:56;;;;;;;42.17;15.90;;;;;;;15.73;100.00;101315.22;6091203;19;19998;-78
2023/10/11 04:50:11;;;;;;;47.35;16.42;;;;;;;15.71;100.00;101316.25;6089301;19;20554;-76
2023/10/11 04:52:23;;;;;;;39.85;18.17;;;;;;;15.70;100.00;101318.03;6085553;19;20003;-75
2023/10/11 04:54:42;;;;;;;47.63;17.23;;;;;;;15.74;100.00;101297.53;6090355;19;20265;-77
2023/10/11 04:56:55;;;;;;;48.35;17.00;;;;;;;15.74;100.00;101306.31;6088258;19;20003;-77
2023/10/11 04:59:06;;;;;;;46.60;18.00;;;;;;;15.78;100.00;101326.41;6089778;19;20010;-78
2023/10/11 05:01:22;;;;;;;49.05;17.67;;;;;;;15.82;100.00;101320.94;6093874;19;20045;-78
2023/10/11 05:03:30;;;;;;;54.53;18.63;;;;;;;15.79;100.00;101317.53;6086960;19;20118;-75
2023/10/11 05:05:42;;;;;;;49.67;17.63;;;;;;;15.84;100.00;101325.22;6088271;19;20015;-75
2023/10/11 05:07:55;;;;;;;44.17;16.05;;;;;;;15.83;100.00;101322.69;6088116;19;20015;-76
2023/10/11 05:10:29;;;;;;;47.85;17.52;;;;;;;15.85;100.00;101311.06;6083470;19;20017;-74
2023/10/11 05:12:38;;;;;;;49.30;16.17;;;;;;;15.86;100.00;101306.59;6090468;19;20006;-77
2023/10/11 05:15:07;;;;;;;46.63;16.50;;;;;;;15.88;100.00;101312.69;6091298;19;20354;-78
2023/10/11 05:17:32;;;;;;;53.10;18.63;;;;;;;15.93;100.00;101310.59;5988012;19;2004529;-77
2023/10/11 05:19:37;;;;;;;50.83;17.23;;;;;;;15.96;100.00;101316.63;6086167;19;20129;-79
2023/10/11 05:21:52;;;;;;;44.22;17.98;;;;;;;15.93;100.00;101303.53;6089332;19;20028;-80
2023/10/11 05:24:43;;;;;;;48.92;17.08;;;;;;;15.98;100.00;101306.78;6087115;19;20620;-73
2023/10/11 05:27:03;;;;;;;56.72;18.15;;;;;;;15.96;100.00;101297.22;6087853;19;20019;-74
2023/10/11 05:29:24;;;;;;;47.45;17.95;;;;;;;15.95;100.00;101300.78;6084975;19;20037;-75
2023/10/11 05:31:44;;;;;;;52.15;17.13;;;;;;;15.95;100.00;101312.22;6088637;19;20030;-75
2023/10/11 05:36:36;;;;;;;58.63;17.88;;;;;;;15.99;100.00;101308.47;6085781;19;20026;-75
2023/10/11 05:53:03;;;;;;;44.92;16.20;;;;;;;16.07;100.00;101281.53;6085189;19;20389;-78
2023/10/11 05:55:10;;;;;;;53.38;16.80;;;;;;;16.12;100.00;101291.91;6086979;19;20003;-78
2023/10/11 05:57:16;;;;;;;40.33;15.32;;;;;;;16.13;100.00;101299.75;6087962;19;20553;-77
2023/10/11 05:59:21;;;;;;;47.85;16.38;;;;;;;16.15;100.00;101305.81;6082500;19;20121;-77
2023/10/11 06:01:26;;;;;;;44.10;16.30;;;;;;;16.17;100.00;101314.56;6088689;19;20033;-76
2023/10/11 06:03:35;;;;;;;50.83;16.48;;;;;;;16.19;100.00;101306.50;6087125;19;20010;-74
2023/10/11 06:05:45;;;;;;;38.30;15.90;;;;;;;16.18;100.00;101305.66;6085930;19;20015;-75
2023/10/11 06:08:00;;;;;;;41.05;15.98;;;;;;;16.18;100.00;101313.59;6087078;19;20059;-77
2023/10/11 06:10:08;;;;;;;41.92;15.98;;;;;;;16.16;100.00;101311.97;6087892;19;20010;-77
2023/10/11 06:12:26;;;;;;;38.92;15.10;;;;;;;16.19;100.00;101319.75;6088578;19;20002;-77
2023/10/11 06:14:36;;;;;;;42.90;16.73;;;;;;;16.22;100.00;101327.56;6088086;19;20015;-74
2023/10/11 06:16:43;;;;;;;33.08;15.70;;;;;;;16.21;100.00;101328.47;6095075;19;20101;-77
2023/10/11 06:19:16;;;;;;;47.03;15.68;;;;;;;16.19;100.00;101323.28;6093744;19;20011;-75
2023/10/11 06:21:34;;;;;;;35.95;13.90;;;;;;;16.26;100.00;101328.22;6090225;19;20023;-76
2023/10/11 06:23:42;;;;;;;45.85;14.43;;;;;;;16.32;100.00;101335.84;5989602;19;2004844;-79
2023/10/11 06:25:54;;;;;;;40.92;15.15;;;;;;;16.29;100.00;101330.72;6095607;19;20029;-79
2023/10/11 06:28:15;;;;;;;46.90;15.80;;;;;;;16.32;100.00;101335.84;6094642;19;20019;-73
2023/10/11 06:30:21;;;;;;;39.22;14.30;;;;;;;16.35;100.00;101333.88;6092577;19;20683;-74
2023/10/11 06:32:31;;;;;;;41.33;14.32;;;;;;;16.34;100.00;101333.97;6075307;19;20025;-78
2023/10/11 06:34:36;;;;;;;47.45;14.73;;;;;;;16.36;100.00;101334.72;6095014;19;20004;-74
2023/10/11 06:36:48;;;;;;;36.60;13.60;;;;;;;16.35;100.00;101333.00;6091535;19;20041;-74
2023/10/11 06:38:54;;;;;;;36.95;13.65;;;;;;;16.31;100.00;101324.38;6096026;19;20017;-78
2023/10/11 06:43:20;;;;;;;40.08;14.48;;;;;;;16.36;100.00;101313.50;6095606;19;20562;-74
2023/10/11 06:45:28;;;;;;;42.08;15.05;;;;;;;16.37;100.00;101321.38;6099343;19;20331;-74
2023/10/11 06:47:38;;;;;;;44.75;14.65;;;;;;;16.38;100.00;101316.94;6095378;19;20572;-74
2023/10/11 06:49:44;;;;;;;48.17;15.43;;;;;;;16.34;100.00;101313.59;6100565;19;20070;-78
2023/10/11 06:51:54;;;;;;;52.38;16.30;;;;;;;16.38;100.00;101314.28;6102422;19;20021;-77
2023/10/11 06:54:06;;;;;;;41.22;15.02;;;;;;;16.37;100.00;101317.88;6098986;19;20014;-78
2023/10/11 06:56:16;;;;;;;42.25;13.35;;;;;;;16.34;100.00;101318.03;6099760;19;20018;-78
2023/10/11 06:58:22;;;;;;;38.92;13.75;;;;;;;16.42;100.00;101337.03;6095025;19;20015;-75
2023/10/11 07:00:37;;;;;;;35.88;14.93;;;;;;;16.47;100.00;101340.28;6095544;19;20078;-77
2023/10/11 07:02:47;;;;;;;48.15;15.48;;;;;;;16.45;100.00;101324.44;6093307;19;20010;-77
2023/10/11 07:04:53;;;;;;;43.88;16.70;;;;;;;16.52;100.00;101338.22;6096446;19;20014;-77
2023/10/11 07:07:07;;;;;;;47.75;15.68;;;;;;;16.56;100.00;101342.41;6095971;19;20589;-78
2023/10/11 07:09:19;;;;;;;40.58;14.98;;;;;;;16.56;100.00;101339.75;6095658;19;20389;-78
2023/10/11 07:11:40;;;;;;;50.95;14.27;;;;;;;16.57;100.00;101354.72;6093454;19;20587;-74
2023/10/11 07:13:54;;;;;;;44.67;15.02;;;;;;;16.58;100.00;101348.47;6091341;19;20006;-78
2023/10/11 07:16:08;;;;;;;33.47;14.10;;;;;;;16.66;100.00;101354.19;6093844;19;20014;-78
2023/10/11 07:18:21;;;;;;;39.95;12.70;;;;;;;16.67;100.00;101347.94;6094167;19;20086;-78
2023/10/11 07:20:47;;;;;;;46.08;15.77;;;;;;;16.71;100.00;101353.06;6089336;19;20007;-78
2023/10/11 07:22:59;;;;;;;41.20;13.38;;;;;;;16.77;100.00;101352.69;5984471;19;2004565;-77
2023/10/11 07:25:36;;;;;;;46.45;14.07;;;;;;;16.82;100.00;101361.28;6084558;19;20041;-73
2023/10/11 07:27:37;;;;;;;34.58;13.73;;;;;;;16.82;100.00;101356.81;6086607;19;20026;-74
2023/10/11 07:29:51;;;;;;;38.90;14.43;;;;;;;16.84;100.00;101349.63;6083759;19;20494;-74
2023/10/11 07:32:01;;;;;;;34.70;12.63;;;;;;;16.88;100.00;101347.69;6088252;19;20006;-79
2023/10/11 07:34:09;;;;;;;41.30;12.88;;;;;;;16.92;100.00;101341.22;6090413;19;20470;-77
2023/10/11 07:36:15;;;;;;;42.08;13.20;;;;;;;16.92;100.00;101343.88;6092563;19;20865;-77
2023/10/11 07:38:32;;;;;;;36.13;12.95;;;;;;;16.96;100.00;101356.03;6090355;19;20010;-77
2023/10/11 07:40:46;;;;;;;41.60;12.43;;;;;;;16.94;100.00;101355.28;6088544;19;20649;-77
2023/10/11 07:42:54;;;;;;;40.08;14.27;;;;;;;17.03;100.00;101370.63;6095112;19;20041;-75
2023/10/11 07:45:07;;;;;;;48.83;15.40;;;;;;;17.06;100.00;101361.63;6086943;19;20021;-78
2023/10/11 07:47:18;;;;;;;48.08;15.13;;;;;;;17.06;100.00;101358.97;6087973;19;20027;-78
2023/10/11 07:49:27;;;;;;;33.92;12.35;;;;;;;17.06;100.00;101359.88;6090473;19;20454;-77
2023/10/11 07:51:32;;;;;;;40.60;12.85;;;;;;;17.07;100.00;101360.72;6091341;19;20010;-77
2023/10/11 07:53:45;;;;;;;43.20;13.65;;;;;;;17.11;100.00;101354.25;6087244;19;20013;-76
2023/10/11 07:55:48;;;;;;;40.75;13.45;;;;;;;17.11;100.00;101371.06;6088778;19;20395;-77
2023/10/11 07:57:59;;;;;;;39.63;12.82;;;;;;;17.14;100.00;101366.50;6091148;19;20032;-78
2023/10/11 08:00:16;;;;;;;35.40;13.38;;;;;;;17.14;100.00;101363.84;6089813;19;20017;-78
2023/10/11 08:02:41;;;;;;;37.85;14.13;;;;;;;17.13;100.00;101383.38;6092436;19;20010;-78
2023/10/11 08:04:53;;;;;;;38.97;13.43;;;;;;;17.17;100.00;101374.28;6091978;19;20045;-74
2023/10/11 08:07:03;;;;;;;37.08;12.45;;;;;;;17.13;100.00;101378.06;6089310;19;20246;-75
2023/10/11 08:09:19;;;;;;;40.65;13.23;;;;;;;17.14;100.00;101385.97;5989903;19;2004898;-79
2023/10/11 08:11:26;;;;;;;33.38;10.77;;;;;;;17.18;100.00;101384.81;6090309;19;20002;-76
2023/10/11 08:13:31;;;;;;;23.92;8.35;;;;;;;17.20;100.00;101387.41;6089495;19;20775;-76
2023/10/11 08:15:43;;;;;;;26.52;8.50;;;;;;;17.23;100.00;101387.22;6082756;19;20023;-76
2023/10/11 08:17:52;;;;;;;20.03;7.77;;;;;;;17.25;100.00;101395.94;6085929;19;20094;-78
2023/10/11 08:19:58;;;;;;;25.80;9.52;;;;;;;17.23;100.00;101387.22;6087104;19;20482;-80
2023/10/11 08:22:09;;;;;;;24.90;8.25;;;;;;;17.23;100.00;101385.41;6085981;19;20647;-75
2023/10/11 08:24:24;;;;;;;23.27;7.28;;;;;;;17.26;100.00;101376.41;6082626;19;20366;-79
2023/10/11 08:26:32;;;;;;;25.85;8.98;;;;;;;17.30;100.00;101378.78;6087251;19;20014;-77
2023/10/11 08:28:47;;;;;;;18.50;7.50;;;;;;;17.32;100.00;101381.34;6087952;19;20383;-78
2023/10/11 08:30:57;;;;;;;28.58;9.07;;;;;;;17.34;100.00;101385.59;6088974;19;20010;-78
2023/10/11 08:33:04;;;;;;;21.15;7.18;;;;;;;17.37;100.00;101395.19;6086582;19;20011;-79
2023/10/11 08:35:15;;;;;;;14.63;6.50;;;;;;;17.37;100.00;101397.84;6084794;19;20006;-76
2023/10/11 08:37:24;;;;;;;20.50;6.68;;;;;;;17.41;100.00;101380.78;6078910;19;20078;-74
2023/10/11 08:39:44;;;;;;;19.27;7.35;;;;;;;17.43;100.00;101370.06;6086717;19;20015;-80
2023/10/11 08:41:49;;;;;;;22.02;6.60;;;;;;;17.44;100.00;101374.44;5983360;19;2004702;-78
2023/10/11 08:43:59;;;;;;;23.80;6.65;;;;;;;17.45;100.00;101379.63;6087806;19;20024;-74
2023/10/11 08:46:11;;;;;;;22.75;7.30;;;;;;;17.47;100.00;101375.09;6083242;19;20021;-74
2023/10/11 08:48:29;;;;;;;20.20;7.68;;;;;;;17.45;100.00;101376.97;6086165;19;20002;-74
2023/10/11 08:50:37;;;;;;;15.00;5.80;;;;;;;17.53;100.00;101390.66;6085784;19;20018;-74
2023/10/11 08:52:47;;;;;;;18.52;6.90;;;;;;;17.51;100.00;101376.63;6079126;19;19998;-74
2023/10/11 08:54:58;;;;;;;16.45;6.20;;;;;;;17.53;100.00;101380.03;6083961;19;20006;-74
2023/10/11 08:57:04;;;;;;;20.63;6.80;;;;;;;17.56;100.00;101373.66;6087166;19;20006;-79
2023/10/11 08:59:15;;;;;;;19.80;6.75;;;;;;;17.53;100.00;101372.06;6090200;19;20025;-81
2023/10/11 09:01:27;;;;;;;16.38;6.63;;;;;;;17.58;100.00;101382.41;6086328;19;20006;-74
2023/10/11 09:03:39;;;;;;;;;;;;;;;17.57;100.00;101374.56;6090650;19;20010;-78
2023/10/11 09:05:58;;;;;;;20.20;6.50;;;;;;;17.57;100.00;101375.41;6086210;19;19967;-78
2023/10/11 09:08:06;;;;;;;15.30;6.32;;;;;;;17.59;100.00;101373.50;6088671;19;20003;-79
2023/10/11 09:10:33;;;;;;;22.55;7.05;;;;;;;17.62;100.00;101368.00;6087610;19;20540;-78
2023/10/11 09:12:45;;;;;;;19.48;6.53;;;;;;;17.67;100.00;101365.06;6087485;19;19999;-78
2023/10/11 09:15:04;;;;;;;18.92;6.55;;;;;;;17.75;100.00;101368.09;6086464;19;20011;-76
2023/10/11 09:17:22;;;;;;;19.63;7.30;;;;;;;17.74;100.00;101393.81;6083500;19;20029;-76
2023/10/11 09:19:32;;;;;;;22.20;6.72;;;;;;;17.81;100.00;101390.81;6087028;19;20124;-79
2023/10/11 09:21:42;;;;;;;24.42;7.63;;;;;;;17.77;100.00;101384.78;6082156;19;20508;-79
2023/10/11 09:23:46;;;;;;;20.63;7.57;;;;;;;17.80;100.00;101387.31;6088729;19;20007;-80
2023/10/11 09:26:01;;;;;;;22.88;6.47;;;;;;;17.89;100.00;101392.03;6087257;19;20007;-80
2023/10/11 09:28:08;;;;;;;18.38;8.07;;;;;;;17.92;100.00;101388.34;6088311;19;20353;-80
2023/10/11 09:30:19;;;;;;;17.35;6.50;;;;;;;17.96;100.00;101388.06;6085137;19;20015;-79
2023/10/11 09:32:35;;;;;;;22.75;7.18;;;;;;;17.97;100.00;101404.84;6085438;19;20478;-75
2023/10/11 09:34:41;;;;;;;16.17;6.57;;;;;;;17.98;100.00;101412.75;6082603;19;20011;-75
2023/10/11 09:36:51;;;;;;;24.10;8.05;;;;;;;18.03;100.00;101419.56;6086545;19;20588;-76
2023/10/11 09:39:02;;;;;;;20.95;8.27;;;;;;;17.96;100.00;101414.66;6092061;19;20010;-82
2023/10/11 09:41:25;;;;;;;23.83;7.68;;;;;;;17.98;100.00;101399.44;6082163;19;20451;-77
2023/10/11 09:43:46;;;;;;;20.92;7.40;;;;;;;18.01;100.00;101398.41;6080319;19;20041;-85
2023/10/11 09:45:55;;;;;;;18.15;7.55;;;;;;;18.08;100.00;101405.03;6084644;19;20066;-75
2023/10/11 09:48:07;;;;;;;23.25;8.55;;;;;;;18.13;100.00;101402.94;6093750;19;20007;-80
2023/10/11 09:50:15;;;;;;;17.15;6.85;;;;;;;18.37;100.00;101411.16;6090783;19;20030;-80
2023/10/11 09:52:25;;;;;;;21.63;7.40;;;;;;;18.41;100.00;101403.84;6088081;19;20056;-76
2023/10/11 09:54:34;;;;;;;23.95;6.90;;;;;;;18.45;100.00;101407.16;6088816;19;20467;-76
2023/10/11 09:56:55;;;;;;;17.45;7.13;;;;;;;18.43;100.00;101408.13;6089019;19;20157;-76
2023/10/11 09:59:25;;;;;;;18.95;6.93;;;;;;;18.58;100.00;101397.41;6095932;19;20019;-84
2023/10/11 10:01:41;;;;;;;23.25;7.18;;;;;;;18.74;100.00;101406.09;6086797;19;20162;-76
2023/10/11 10:03:52;;;;;;;15.93;6.78;;;;;;;18.78;100.00;101402.31;6091197;19;20431;-78
2023/10/11 10:06:18;;;;;;;17.88;8.07;;;;;;;18.92;100.00;101408.53;6090660;19;20466;-77
2023/10/11 10:08:28;;;;;;;14.73;6.20;;;;;;;18.95;100.00;101400.34;5993608;19;2004556;-81
2023/10/11 10:10:57;;;;;;;16.85;6.47;;;;;;;18.94;100.00;101399.50;6100877;19;20006;-83
2023/10/11 10:13:09;;;;;;;15.18;5.85;;;;;;;18.90;100.00;101389.16;6101442;19;20014;-84
2023/10/11 10:15:28;;;;;;;18.73;6.07;;;;;;;19.12;100.00;101400.06;6095702;19;20020;-75
2023/10/11 10:17:34;;;;;;;15.35;5.97;;;;;;;19.22;100.00;101397.63;6090414;19;19999;-76
2023/10/11 10:19:44;;;;;;;16.80;5.65;;;;;;;19.34;100.00;101399.47;6091854;19;20006;-84
2023/10/11 10:22:23;;;;;;;16.67;5.82;;;;;;;19.34;100.00;101390.63;6096062;19;20474;-76